Time;durP1;ratioP1;P1;durP2;ratioP2;P2;SDS_P1;SDS_P2;PMS_P1;PMS_P2;Temp;Humidity;BMP_temperature;BMP_pressure;BME280_temperature;BME280_humidity;BME280_pressure;Samples;Min_cycle;Max_cycle;Signal;HPM_P1;HPM_P2
2024/02/16 00:00:59;;;;;;;1.23;1.03;;;21.20;55.50;;;;;;5052130;28;20445;-71
2024/02/16 00:03:26;;;;;;;1.00;0.90;;;21.10;55.40;;;;;;5052873;28;20181;-72
2024/02/16 00:05:52;;;;;;;1.00;0.80;;;21.10;55.40;;;;;;5052339;28;20464;-72
2024/02/16 00:08:18;;;;;;;1.40;1.10;;;21.10;55.40;;;;;;5052713;28;20912;-71
2024/02/16 00:10:44;;;;;;;1.23;0.90;;;21.10;55.40;;;;;;5052091;28;20609;-70
2024/02/16 00:13:10;;;;;;;1.20;0.80;;;21.10;55.40;;;;;;5052023;28;20429;-70
2024/02/16 00:15:35;;;;;;;1.00;0.80;;;21.10;55.40;;;;;;5052702;28;20179;-71
2024/02/16 00:18:02;;;;;;;0.90;0.70;;;21.10;55.40;;;;;;5051862;28;20171;-71
2024/02/16 00:20:28;;;;;;;1.10;0.80;;;21.10;55.40;;;;;;5052394;28;20209;-71
2024/02/16 00:22:55;;;;;;;1.27;0.80;;;21.10;55.40;;;;;;5050907;28;20429;-71
2024/02/16 00:25:20;;;;;;;1.40;0.80;;;21.10;55.50;;;;;;5050566;28;20461;-71
2024/02/16 00:27:46;;;;;;;1.37;0.90;;;21.10;55.40;;;;;;5052419;28;20508;-70
2024/02/16 00:30:12;;;;;;;1.53;0.97;;;21.10;55.40;;;;;;5053165;28;20205;-69
2024/02/16 00:32:37;;;;;;;1.07;0.90;;;21.10;55.50;;;;;;5055793;28;20206;-72
2024/02/16 00:35:03;;;;;;;1.07;0.90;;;21.10;55.50;;;;;;5054744;28;20179;-70
2024/02/16 00:37:29;;;;;;;1.30;1.20;;;21.10;55.50;;;;;;5055776;28;20175;-68
2024/02/16 00:39:55;;;;;;;0.93;0.77;;;21.10;56.00;;;;;;5055741;28;20927;-71
2024/02/16 00:42:23;;;;;;;1.00;0.80;;;21.10;55.50;;;;;;5055872;28;20205;-71
2024/02/16 00:44:49;;;;;;;1.00;0.70;;;21.10;55.50;;;;;;5055705;28;20420;-71
2024/02/16 00:47:16;;;;;;;1.43;0.90;;;21.10;55.40;;;;;;5055931;28;20448;-71
2024/02/16 00:49:43;;;;;;;1.00;0.90;;;21.10;55.50;;;;;;5054955;28;20410;-70
2024/02/16 00:52:10;;;;;;;1.10;0.80;;;21.10;55.50;;;;;;5055581;28;20515;-70
2024/02/16 00:54:36;;;;;;;1.00;0.90;;;21.10;55.50;;;;;;5055709;28;20409;-72
2024/02/16 00:57:02;;;;;;;1.07;0.80;;;21.10;55.50;;;;;;5055734;28;20690;-70
2024/02/16 00:59:29;;;;;;;2.50;1.80;;;21.10;55.40;;;;;;5055481;28;20422;-69
2024/02/16 01:01:54;;;;;;;1.00;0.77;;;21.10;55.50;;;;;;5055478;28;20429;-71
2024/02/16 01:04:20;;;;;;;1.77;0.80;;;21.10;55.50;;;;;;5055399;28;20414;-70
2024/02/16 01:06:46;;;;;;;1.17;0.90;;;21.10;55.40;;;;;;5055104;28;20245;-71
2024/02/16 01:09:12;;;;;;;1.43;1.07;;;21.10;55.40;;;;;;5055474;28;20178;-71
2024/02/16 01:11:42;;;;;;;1.10;0.90;;;21.10;55.50;;;;;;5055579;28;20663;-71
2024/02/16 01:14:07;;;;;;;1.20;0.90;;;21.10;55.40;;;;;;5054777;28;20893;-70
2024/02/16 01:16:33;;;;;;;1.27;0.80;;;21.10;55.40;;;;;;5055189;28;20405;-70
2024/02/16 01:18:59;;;;;;;1.20;1.00;;;21.10;55.40;;;;;;5055568;28;20202;-70
2024/02/16 01:21:25;;;;;;;1.07;0.80;;;21.10;55.50;;;;;;5055400;28;20222;-70
2024/02/16 01:23:50;;;;;;;1.10;0.80;;;21.10;55.50;;;;;;5054959;28;20187;-70
2024/02/16 01:26:16;;;;;;;0.90;0.70;;;21.00;55.30;;;;;;5053806;28;20203;-71
2024/02/16 01:28:41;;;;;;;1.30;1.00;;;21.10;55.40;;;;;;5053917;28;20183;-71
2024/02/16 01:31:09;;;;;;;0.93;0.67;;;21.10;55.50;;;;;;5055038;28;20190;-70
2024/02/16 01:33:35;;;;;;;1.60;1.20;;;21.00;55.40;;;;;;5055090;28;20177;-71
2024/02/16 01:36:02;;;;;;;1.77;0.90;;;21.00;55.40;;;;;;5053714;28;20453;-70
2024/02/16 01:38:28;;;;;;;0.90;0.70;;;21.00;55.40;;;;;;5053656;28;20520;-70
2024/02/16 01:40:53;;;;;;;1.30;0.90;;;21.00;55.40;;;;;;5054556;28;20509;-70
2024/02/16 01:43:22;;;;;;;1.00;0.70;;;21.00;55.40;;;;;;5054239;28;20198;-71
2024/02/16 01:45:48;;;;;;;1.07;0.87;;;21.00;55.40;;;;;;5054786;28;20198;-71
2024/02/16 01:48:15;;;;;;;1.00;0.80;;;21.00;55.40;;;;;;5054910;28;21075;-70
2024/02/16 01:50:44;;;;;;;1.30;0.97;;;21.10;55.50;;;;;;5054256;28;20195;-72
2024/02/16 01:53:11;;;;;;;1.00;0.73;;;21.00;55.40;;;;;;5053818;28;20512;-71
2024/02/16 01:55:37;;;;;;;1.10;0.90;;;21.00;55.40;;;;;;5053938;28;20482;-71
2024/02/16 01:58:04;;;;;;;1.10;0.70;;;21.00;55.50;;;;;;5054379;28;20401;-71
2024/02/16 02:00:30;;;;;;;1.07;0.70;;;21.00;55.40;;;;;;5053932;28;20410;-69
2024/02/16 02:02:57;;;;;;;1.00;0.83;;;21.00;55.40;;;;;;5053849;28;20448;-71
2024/02/16 02:05:22;;;;;;;1.60;1.00;;;21.00;55.40;;;;;;5053500;28;20199;-70
2024/02/16 02:07:48;;;;;;;0.90;0.73;;;21.00;55.40;;;;;;5053681;28;20467;-69
2024/02/16 02:10:14;;;;;;;0.90;0.70;;;21.00;55.40;;;;;;5053594;28;20163;-71
2024/02/16 02:12:42;;;;;;;1.33;0.90;;;21.10;55.50;;;;;;5053842;28;20421;-70
2024/02/16 02:15:08;;;;;;;1.03;0.80;;;21.10;55.50;;;;;;5053840;28;20170;-69
2024/02/16 02:17:34;;;;;;;1.20;1.00;;;21.00;55.40;;;;;;5053904;28;20919;-71
2024/02/16 02:20:01;;;;;;;0.90;0.70;;;21.00;55.40;;;;;;5053568;28;20432;-69
2024/02/16 02:22:27;;;;;;;1.10;0.90;;;21.00;55.40;;;;;;5053491;28;20468;-71
2024/02/16 02:24:55;;;;;;;0.90;0.70;;;21.00;55.40;;;;;;5053883;28;20900;-70
2024/02/16 02:27:21;;;;;;;1.20;0.90;;;21.00;55.40;;;;;;5053614;28;20495;-71
2024/02/16 02:29:47;;;;;;;3.13;0.80;;;21.00;55.40;;;;;;5053212;28;20405;-69
2024/02/16 02:32:13;;;;;;;1.10;0.90;;;21.00;55.40;;;;;;5053448;28;20432;-70
2024/02/16 02:34:39;;;;;;;1.00;0.90;;;21.00;55.40;;;;;;5053312;28;20171;-70
2024/02/16 02:37:05;;;;;;;0.90;0.80;;;21.00;55.40;;;;;;5053542;28;20217;-70
2024/02/16 02:39:31;;;;;;;1.50;0.90;;;21.00;55.40;;;;;;5053332;28;20509;-70
2024/02/16 02:41:57;;;;;;;2.23;1.10;;;21.00;55.50;;;;;;5053638;28;20429;-71
2024/02/16 02:44:23;;;;;;;1.00;0.77;;;21.00;55.40;;;;;;5053146;28;20988;-71
2024/02/16 02:46:49;;;;;;;1.67;0.90;;;21.00;55.40;;;;;;5053016;28;20465;-70
2024/02/16 02:49:15;;;;;;;1.23;0.90;;;21.00;55.40;;;;;;5053029;28;20416;-71
2024/02/16 02:51:40;;;;;;;1.70;1.10;;;21.00;55.40;;;;;;5053185;28;20191;-70
2024/02/16 02:54:06;;;;;;;1.47;1.10;;;21.00;55.50;;;;;;5052579;28;20167;-70
2024/02/16 02:56:31;;;;;;;1.37;1.07;;;21.00;55.40;;;;;;5053220;28;20175;-70
2024/02/16 02:58:57;;;;;;;1.20;0.80;;;21.00;55.50;;;;;;5053674;28;20185;-71
2024/02/16 03:01:23;;;;;;;1.03;0.90;;;21.00;55.40;;;;;;5053254;28;20205;-71
2024/02/16 03:03:48;;;;;;;1.27;1.00;;;21.00;55.50;;;;;;5053324;28;20555;-71
2024/02/16 03:06:18;;;;;;;1.23;1.00;;;21.00;55.50;;;;;;5052994;28;20226;-70
2024/02/16 03:08:44;;;;;;;1.83;1.20;;;21.00;55.50;;;;;;5053436;28;20234;-71
2024/02/16 03:11:10;;;;;;;1.07;0.80;;;21.00;55.50;;;;;;5052879;28;20452;-70
2024/02/16 03:13:36;;;;;;;0.93;0.80;;;21.00;55.50;;;;;;5053784;28;20197;-71
2024/02/16 03:16:01;;;;;;;1.67;1.00;;;21.00;55.50;;;;;;5051805;28;20429;-69
2024/02/16 03:18:31;;;;;;;1.40;0.90;;;21.00;55.50;;;;;;5053351;28;20202;-70
2024/02/16 03:20:57;;;;;;;0.97;0.80;;;21.00;55.50;;;;;;5052779;28;20258;-70
2024/02/16 03:23:23;;;;;;;1.10;0.90;;;21.00;55.50;;;;;;5052961;28;20501;-70
2024/02/16 03:25:49;;;;;;;1.07;0.90;;;20.90;55.40;;;;;;5052767;28;20916;-70
2024/02/16 03:28:15;;;;;;;1.40;1.10;;;20.90;55.40;;;;;;5052951;28;20411;-69
2024/02/16 03:30:41;;;;;;;1.20;1.00;;;20.90;55.40;;;;;;5051034;28;20171;-71
2024/02/16 03:33:07;;;;;;;1.07;0.80;;;21.00;55.50;;;;;;5052611;28;20439;-72
2024/02/16 03:35:33;;;;;;;0.93;0.80;;;20.90;55.40;;;;;;5053262;28;20413;-71
2024/02/16 03:37:58;;;;;;;1.13;0.90;;;20.90;55.40;;;;;;5052663;28;20459;-70
2024/02/16 03:40:25;;;;;;;1.07;0.77;;;20.90;55.40;;;;;;5052954;28;20183;-71
2024/02/16 03:42:52;;;;;;;1.33;0.97;;;20.90;55.50;;;;;;5052789;28;20194;-70
2024/02/16 03:45:17;;;;;;;2.07;1.10;;;20.90;55.40;;;;;;5052972;28;21054;-70
2024/02/16 03:47:43;;;;;;;1.23;1.00;;;21.00;55.50;;;;;;5052662;28;20449;-70
2024/02/16 03:50:09;;;;;;;1.10;0.83;;;20.90;55.40;;;;;;5052678;28;20179;-70
2024/02/16 03:52:35;;;;;;;1.23;1.10;;;20.90;55.50;;;;;;5052935;28;20978;-71
2024/02/16 03:55:01;;;;;;;1.10;0.80;;;20.90;55.40;;;;;;5052820;28;20459;-71
2024/02/16 03:57:26;;;;;;;1.33;0.90;;;21.00;55.50;;;;;;5052481;28;20685;-69
2024/02/16 03:59:52;;;;;;;1.20;1.00;;;21.00;55.50;;;;;;5052181;28;20254;-71
2024/02/16 04:02:18;;;;;;;1.00;0.80;;;21.00;55.50;;;;;;5052572;28;20194;-71
2024/02/16 04:04:44;;;;;;;1.60;1.00;;;20.90;55.50;;;;;;5053624;28;20190;-70
2024/02/16 04:07:10;;;;;;;1.33;1.00;;;20.90;55.50;;;;;;5055940;28;20831;-70
2024/02/16 04:09:36;;;;;;;1.00;0.80;;;20.90;55.50;;;;;;5056619;28;20493;-71
2024/02/16 04:12:03;;;;;;;1.00;0.87;;;20.90;55.50;;;;;;5056182;28;20215;-70
2024/02/16 04:14:30;;;;;;;1.93;0.90;;;20.90;55.50;;;;;;5056167;28;20163;-69
2024/02/16 04:16:57;;;;;;;3.20;0.90;;;20.90;55.50;;;;;;5056360;28;20421;-72
2024/02/16 04:19:24;;;;;;;1.10;0.97;;;20.90;55.50;;;;;;5055905;28;20532;-72
2024/02/16 04:21:50;;;;;;;1.23;0.90;;;20.90;55.50;;;;;;5055668;28;20478;-71
2024/02/16 04:24:15;;;;;;;1.47;1.00;;;20.90;55.50;;;;;;5055727;28;20452;-71
2024/02/16 04:26:41;;;;;;;1.00;0.80;;;20.90;55.50;;;;;;5056034;28;20199;-72
2024/02/16 04:29:06;;;;;;;1.00;0.80;;;20.90;55.50;;;;;;5055804;28;20202;-71
2024/02/16 04:31:32;;;;;;;1.00;0.90;;;20.90;55.50;;;;;;5056083;28;20268;-71
2024/02/16 04:33:58;;;;;;;1.60;1.00;;;20.90;55.50;;;;;;5055771;28;20555;-71
2024/02/16 04:36:23;;;;;;;1.40;1.10;;;20.90;55.50;;;;;;5055560;28;20562;-69
2024/02/16 04:38:49;;;;;;;1.20;0.90;;;20.90;55.50;;;;;;5055412;28;20409;-70
2024/02/16 04:41:15;;;;;;;1.00;0.80;;;20.90;55.50;;;;;;5054164;28;20268;-71
2024/02/16 04:43:41;;;;;;;1.20;1.00;;;20.90;55.50;;;;;;5055732;28;20171;-70
2024/02/16 04:46:07;;;;;;;1.40;0.90;;;20.90;55.50;;;;;;5055432;28;20468;-71
2024/02/16 04:48:34;;;;;;;1.30;0.80;;;20.90;55.50;;;;;;5055286;28;20202;-70
2024/02/16 04:50:59;;;;;;;1.00;0.80;;;20.90;55.50;;;;;;5055653;28;20163;-71
2024/02/16 04:53:25;;;;;;;1.13;0.90;;;20.90;55.50;;;;;;5055486;28;20463;-70
2024/02/16 04:55:51;;;;;;;1.33;1.00;;;20.90;55.50;;;;;;5055498;28;20175;-70
2024/02/16 04:58:16;;;;;;;1.30;1.10;;;20.90;55.50;;;;;;5055001;28;20171;-70
2024/02/16 05:00:42;;;;;;;1.50;1.03;;;20.90;55.50;;;;;;5055416;28;20171;-70
2024/02/16 05:03:08;;;;;;;1.10;0.90;;;20.90;55.50;;;;;;5055743;28;20253;-70
2024/02/16 05:05:33;;;;;;;1.07;0.87;;;20.90;55.50;;;;;;5055450;28;20677;-70
2024/02/16 05:08:00;;;;;;;1.40;1.00;;;20.90;55.50;;;;;;5054955;28;20171;-71
2024/02/16 05:10:26;;;;;;;1.30;1.10;;;20.90;55.50;;;;;;5055190;28;20167;-71
2024/02/16 05:12:51;;;;;;;1.30;0.90;;;20.90;55.50;;;;;;5054404;28;20444;-72
2024/02/16 05:15:17;;;;;;;1.00;0.80;;;20.90;55.60;;;;;;5055023;28;20172;-71
2024/02/16 05:17:42;;;;;;;1.23;1.00;;;20.90;55.50;;;;;;5054050;28;20542;-71
2024/02/16 05:20:14;;;;;;;1.20;0.90;;;20.90;55.50;;;;;;5055107;28;20286;-69
2024/02/16 05:22:42;;;;;;;0.90;0.80;;;20.90;55.50;;;;;;5052998;28;20290;-71
2024/02/16 05:25:10;;;;;;;1.10;0.73;;;20.90;55.50;;;;;;5052878;28;21038;-71
2024/02/16 05:27:36;;;;;;;1.10;0.80;;;20.90;55.50;;;;;;5054847;28;20480;-71
2024/02/16 05:30:02;;;;;;;1.20;0.90;;;20.90;55.50;;;;;;5054433;28;20425;-69
2024/02/16 05:32:27;;;;;;;1.17;0.87;;;20.90;55.50;;;;;;5053932;28;20425;-70
2024/02/16 05:34:53;;;;;;;1.00;0.90;;;20.90;55.50;;;;;;5054142;28;20266;-70
2024/02/16 05:37:20;;;;;;;1.37;1.00;;;20.90;55.50;;;;;;5054455;28;20183;-70
2024/02/16 05:39:56;;;;;;;1.17;1.03;;;20.90;55.50;;;;;;5053940;28;20172;-71
2024/02/16 05:42:23;;;;;;;1.10;0.80;;;20.90;55.50;;;;;;5053777;28;20443;-71
2024/02/16 05:44:48;;;;;;;1.00;0.90;;;20.90;55.50;;;;;;5054282;28;20500;-71
2024/02/16 05:47:15;;;;;;;1.30;0.80;;;20.90;55.50;;;;;;5052656;28;20520;-72
2024/02/16 05:49:41;;;;;;;1.30;1.10;;;20.90;55.50;;;;;;5054234;28;20203;-71
2024/02/16 05:52:20;;;;;;;1.03;0.80;;;20.90;55.50;;;;;;5052615;28;20468;-70
2024/02/16 05:54:47;;;;;;;1.00;0.83;;;20.90;55.50;;;;;;5054451;28;20159;-71
2024/02/16 05:57:13;;;;;;;1.20;0.90;;;20.90;55.50;;;;;;5053999;28;20504;-70
2024/02/16 05:59:39;;;;;;;1.00;0.80;;;20.90;55.50;;;;;;5053869;28;20418;-71
2024/02/16 06:02:06;;;;;;;1.10;0.90;;;20.90;55.50;;;;;;5054086;28;20939;-71
2024/02/16 06:04:33;;;;;;;1.07;0.87;;;20.90;55.50;;;;;;5052428;28;20171;-71
2024/02/16 06:06:58;;;;;;;1.07;0.90;;;20.90;55.50;;;;;;5053813;28;20453;-71
2024/02/16 06:09:24;;;;;;;1.10;0.90;;;20.90;55.50;;;;;;5053980;28;20413;-71
2024/02/16 06:11:49;;;;;;;1.00;0.80;;;20.90;55.50;;;;;;5053651;28;20203;-71
2024/02/16 06:14:15;;;;;;;1.00;0.80;;;20.90;55.50;;;;;;5053734;28;20555;-71
2024/02/16 06:16:46;;;;;;;0.90;0.73;;;20.90;55.50;;;;;;5053820;28;20198;-71
2024/02/16 06:19:11;;;;;;;0.90;0.73;;;20.90;55.50;;;;;;5053616;28;20183;-71
2024/02/16 06:21:37;;;;;;;1.13;0.80;;;20.90;55.50;;;;;;5053879;28;20947;-70
2024/02/16 06:24:03;;;;;;;1.00;0.80;;;20.90;55.50;;;;;;5053872;28;20182;-70
2024/02/16 06:26:28;;;;;;;1.30;1.20;;;20.90;55.50;;;;;;5054077;28;20693;-72
2024/02/16 06:28:54;;;;;;;1.07;0.80;;;20.90;55.50;;;;;;5053653;28;20207;-70
2024/02/16 06:31:19;;;;;;;2.03;1.00;;;20.90;55.50;;;;;;5053379;28;20859;-71
2024/02/16 06:33:45;;;;;;;1.13;0.87;;;20.90;55.40;;;;;;5053562;28;20167;-70
2024/02/16 06:36:10;;;;;;;1.03;0.90;;;21.00;55.50;;;;;;5053558;28;20359;-70
2024/02/16 06:38:39;;;;;;;1.10;0.93;;;21.00;55.40;;;;;;5054024;28;20189;-69
2024/02/16 06:41:04;;;;;;;1.20;1.00;;;21.00;55.40;;;;;;5053879;28;20189;-71
2024/02/16 06:43:30;;;;;;;1.00;0.90;;;21.00;55.40;;;;;;5053678;28;20414;-71
2024/02/16 06:45:56;;;;;;;1.10;0.87;;;21.00;55.40;;;;;;5053167;28;20713;-70
2024/02/16 06:48:22;;;;;;;1.10;1.00;;;21.00;55.30;;;;;;5053430;28;20179;-70
2024/02/16 06:50:48;;;;;;;1.10;0.80;;;21.10;55.40;;;;;;5053271;28;20475;-71
2024/02/16 06:53:14;;;;;;;1.17;0.90;;;21.10;55.40;;;;;;5053405;28;20513;-69
2024/02/16 06:55:39;;;;;;;1.20;0.80;;;21.10;55.40;;;;;;5053455;28;20171;-71
2024/02/16 06:58:05;;;;;;;0.90;0.70;;;21.10;55.40;;;;;;5051708;28;20174;-71
2024/02/16 07:00:31;;;;;;;0.90;0.80;;;21.10;55.30;;;;;;5053065;28;20190;-71
2024/02/16 07:02:57;;;;;;;1.20;0.97;;;21.10;55.30;;;;;;5053352;28;20190;-70
2024/02/16 07:05:22;;;;;;;0.90;0.70;;;21.10;55.30;;;;;;5053562;28;20406;-70
2024/02/16 07:07:49;;;;;;;1.10;0.80;;;21.10;55.30;;;;;;5053217;28;20181;-71
2024/02/16 07:10:18;;;;;;;1.20;0.80;;;21.10;55.30;;;;;;5053644;28;20179;-70
2024/02/16 07:12:45;;;;;;;1.00;0.70;;;21.10;55.30;;;;;;5053357;28;20433;-69
2024/02/16 07:15:12;;;;;;;1.00;0.80;;;21.10;55.30;;;;;;5053212;28;20409;-71
2024/02/16 07:17:38;;;;;;;1.67;1.00;;;21.10;55.30;;;;;;5053180;28;20793;-71
2024/02/16 07:20:04;;;;;;;1.00;0.90;;;21.10;55.30;;;;;;5053104;28;20433;-70
2024/02/16 07:22:33;;;;;;;1.17;0.90;;;21.10;55.30;;;;;;5053110;28;20234;-71
2024/02/16 07:25:04;;;;;;;0.90;0.70;;;21.20;55.40;;;;;;5053036;28;20405;-70
2024/02/16 07:27:30;;;;;;;1.13;0.70;;;21.10;55.30;;;;;;5053370;28;20453;-71
2024/02/16 07:29:56;;;;;;;1.10;1.00;;;21.20;55.40;;;;;;5052926;28;20908;-71
2024/02/16 07:32:21;;;;;;;1.53;1.00;;;21.10;55.30;;;;;;5053283;28;20201;-70
2024/02/16 07:34:47;;;;;;;0.90;0.70;;;21.20;55.40;;;;;;5053010;28;20650;-70
2024/02/16 07:37:14;;;;;;;0.90;0.70;;;21.20;55.50;;;;;;5053216;28;20567;-70
2024/02/16 07:39:41;;;;;;;1.20;0.90;;;21.20;55.50;;;;;;5052740;28;20428;-67
2024/02/16 07:42:09;;;;;;;1.00;0.90;;;21.20;55.50;;;;;;5052980;28;20551;-70
2024/02/16 07:44:37;;;;;;;1.00;0.80;;;21.20;55.50;;;;;;5052489;28;20448;-69
2024/02/16 07:47:03;;;;;;;2.20;0.97;;;21.20;55.50;;;;;;5052986;28;20889;-70
2024/02/16 07:49:29;;;;;;;1.03;0.80;;;21.20;55.50;;;;;;5052873;28;20477;-70
2024/02/16 07:51:55;;;;;;;1.03;0.90;;;21.20;55.50;;;;;;5052629;28;20955;-70
2024/02/16 07:54:20;;;;;;;1.10;0.80;;;21.20;55.50;;;;;;5053512;28;20607;-70
2024/02/16 07:56:46;;;;;;;1.40;1.00;;;21.20;55.50;;;;;;5052830;28;20519;-70
2024/02/16 07:59:12;;;;;;;0.90;0.70;;;21.20;55.50;;;;;;5053174;28;20229;-71
2024/02/16 08:01:38;;;;;;;1.10;0.87;;;21.20;55.50;;;;;;5052630;28;20191;-69
2024/02/16 08:04:04;;;;;;;2.03;0.97;;;21.20;55.50;;;;;;5052688;28;20178;-71
2024/02/16 08:06:30;;;;;;;1.20;0.90;;;21.20;55.50;;;;;;5052511;28;20460;-71
2024/02/16 08:08:55;;;;;;;1.03;0.87;;;21.20;55.40;;;;;;5052756;28;20167;-71
2024/02/16 08:11:22;;;;;;;0.90;0.77;;;21.20;55.40;;;;;;5052609;28;20250;-71
2024/02/16 08:13:47;;;;;;;1.77;0.80;;;21.20;55.40;;;;;;5052601;28;20168;-71
2024/02/16 08:16:13;;;;;;;1.10;0.80;;;21.20;55.40;;;;;;5052677;28;20787;-71
2024/02/16 08:18:38;;;;;;;0.90;0.77;;;21.20;55.40;;;;;;5051899;28;20194;-70
2024/02/16 08:21:04;;;;;;;1.30;1.00;;;21.20;55.30;;;;;;5052423;28;20246;-70
2024/02/16 08:23:31;;;;;;;1.00;0.90;;;21.20;55.30;;;;;;5052612;28;20178;-69
2024/02/16 08:25:57;;;;;;;0.87;0.70;;;21.20;55.30;;;;;;5052365;28;20664;-71
2024/02/16 08:28:23;;;;;;;1.43;0.93;;;21.20;55.30;;;;;;5052326;28;20778;-71
2024/02/16 08:30:49;;;;;;;1.00;0.70;;;21.20;55.30;;;;;;5052585;28;20405;-70
2024/02/16 08:33:14;;;;;;;1.10;0.83;;;21.20;55.30;;;;;;5052860;28;20595;-71
2024/02/16 08:35:40;;;;;;;1.00;0.90;;;21.30;55.40;;;;;;5051777;28;20179;-71
2024/02/16 08:38:10;;;;;;;0.97;0.80;;;21.30;55.40;;;;;;5052358;28;20181;-70
2024/02/16 08:40:35;;;;;;;1.27;0.90;;;21.30;55.40;;;;;;5052268;28;20205;-72
2024/02/16 08:43:02;;;;;;;1.27;1.07;;;21.30;55.40;;;;;;5051849;28;20517;-71
2024/02/16 08:45:28;;;;;;;1.00;0.80;;;21.30;55.40;;;;;;5052050;28;20174;-70
2024/02/16 08:47:54;;;;;;;1.50;1.00;;;21.30;55.40;;;;;;5051423;28;20418;-71
2024/02/16 08:50:19;;;;;;;1.43;1.10;;;21.30;55.40;;;;;;5051805;28;20186;-71
2024/02/16 08:52:45;;;;;;;1.23;0.90;;;21.30;55.50;;;;;;5054368;28;20223;-71
2024/02/16 08:55:10;;;;;;;1.20;1.00;;;21.30;55.50;;;;;;5055887;28;20167;-71
2024/02/16 08:57:36;;;;;;;1.10;0.70;;;21.30;55.40;;;;;;5054082;28;20198;-70
2024/02/16 09:00:03;;;;;;;1.03;0.80;;;21.30;55.50;;;;;;5054495;28;20229;-70
2024/02/16 09:02:29;;;;;;;0.80;0.70;;;21.30;55.50;;;;;;5055657;28;20197;-70
2024/02/16 09:04:54;;;;;;;1.20;0.80;;;21.30;55.60;;;;;;5055255;28;20516;-71
2024/02/16 09:07:20;;;;;;;1.63;1.00;;;21.30;55.60;;;;;;5055160;28;20248;-70
2024/02/16 09:09:46;;;;;;;1.33;1.00;;;21.30;55.60;;;;;;5055225;28;20626;-70
2024/02/16 09:12:11;;;;;;;1.10;0.80;;;21.30;55.60;;;;;;5055111;28;20191;-70
2024/02/16 09:14:37;;;;;;;1.83;0.80;;;21.30;55.60;;;;;;5055507;28;20321;-71
2024/02/16 09:17:02;;;;;;;1.40;0.90;;;21.30;55.60;;;;;;5055531;28;20333;-71
2024/02/16 09:19:28;;;;;;;1.73;0.83;;;21.30;55.70;;;;;;5054752;28;20194;-71
2024/02/16 09:21:54;;;;;;;1.23;0.93;;;21.30;55.70;;;;;;5055023;28;20202;-71
2024/02/16 09:24:20;;;;;;;1.27;0.87;;;21.30;55.70;;;;;;5055269;28;20171;-70
2024/02/16 09:26:46;;;;;;;1.10;0.90;;;21.30;55.70;;;;;;5054390;28;20453;-70
2024/02/16 09:29:14;;;;;;;1.00;0.83;;;21.30;55.70;;;;;;5054817;28;20982;-71
2024/02/16 09:31:43;;;;;;;1.10;0.80;;;21.30;55.70;;;;;;5054846;28;20883;-72
2024/02/16 09:34:09;;;;;;;0.93;0.80;;;21.30;55.80;;;;;;5054847;28;20897;-70
2024/02/16 09:36:37;;;;;;;1.20;0.77;;;21.30;55.70;;;;;;5055059;28;20420;-70
2024/02/16 09:39:02;;;;;;;1.00;0.90;;;21.30;55.70;;;;;;5055047;28;20229;-72
2024/02/16 09:41:28;;;;;;;1.00;0.80;;;21.30;55.70;;;;;;5054534;28;20456;-71
2024/02/16 09:43:54;;;;;;;1.20;0.97;;;21.30;55.80;;;;;;5054996;28;20607;-71
2024/02/16 09:46:21;;;;;;;1.17;0.83;;;21.30;55.80;;;;;;5055218;28;20225;-72
2024/02/16 09:48:52;;;;;;;1.50;0.90;;;21.30;55.80;;;;;;5054945;28;20175;-71
2024/02/16 09:51:18;;;;;;;1.73;0.90;;;21.30;55.80;;;;;;5054964;28;20418;-69
2024/02/16 09:53:51;;;;;;;1.50;0.83;;;21.30;55.80;;;;;;5054982;28;20850;-70
2024/02/16 09:56:17;;;;;;;1.40;0.83;;;21.30;55.80;;;;;;5053677;28;20182;-71
2024/02/16 09:58:43;;;;;;;1.00;0.90;;;21.30;55.80;;;;;;5055055;28;20976;-70
2024/02/16 10:01:20;;;;;;;1.33;0.97;;;21.30;55.80;;;;;;5053490;28;20175;-71
2024/02/16 10:03:47;;;;;;;1.10;0.90;;;21.30;55.80;;;;;;5055078;28;20159;-71
2024/02/16 10:06:15;;;;;;;1.00;0.80;;;21.30;55.80;;;;;;5054780;28;20453;-68
2024/02/16 10:09:07;;;;;;;1.60;0.90;;;21.30;55.80;;;;;;5053889;28;20559;-70
2024/02/16 10:11:33;;;;;;;1.63;0.83;;;21.30;55.90;;;;;;5053574;28;20433;-70
2024/02/16 10:14:00;;;;;;;3.53;0.90;;;21.30;55.90;;;;;;5054238;28;20421;-70
2024/02/16 10:16:29;;;;;;;1.20;1.00;;;21.30;55.90;;;;;;5054431;28;20259;-71
2024/02/16 10:19:10;;;;;;;1.40;0.90;;;21.30;55.90;;;;;;5054605;28;20441;-70
2024/02/16 10:21:36;;;;;;;1.70;0.90;;;21.30;55.90;;;;;;5054452;28;20421;-70
2024/02/16 10:24:08;;;;;;;1.13;0.90;;;21.30;55.90;;;;;;5053076;28;20428;-71
2024/02/16 10:26:38;;;;;;;0.90;0.80;;;21.30;55.90;;;;;;5054193;28;20193;-71
2024/02/16 10:29:05;;;;;;;1.20;1.00;;;21.30;55.90;;;;;;5054312;28;20409;-71
2024/02/16 10:31:32;;;;;;;1.00;0.80;;;21.30;55.90;;;;;;5053941;28;20851;-72
2024/02/16 10:34:01;;;;;;;1.60;1.10;;;21.30;56.00;;;;;;5054037;28;21186;-72
2024/02/16 10:36:28;;;;;;;1.30;1.00;;;21.30;55.90;;;;;;5054211;28;20526;-71
2024/02/16 10:38:55;;;;;;;2.17;0.80;;;21.30;55.90;;;;;;5053866;28;20763;-71
2024/02/16 10:41:26;;;;;;;1.40;0.90;;;21.30;55.90;;;;;;5054339;28;20437;-72
2024/02/16 10:43:54;;;;;;;1.10;0.70;;;21.30;56.00;;;;;;5055213;28;20390;-72
2024/02/16 10:46:20;;;;;;;1.30;0.80;;;21.30;56.00;;;;;;5054400;28;20461;-70
2024/02/16 10:48:45;;;;;;;1.50;0.97;;;21.30;56.00;;;;;;5053327;28;20444;-71
2024/02/16 10:51:13;;;;;;;1.30;1.10;;;21.30;56.00;;;;;;5052990;28;20850;-70
2024/02/16 10:53:38;;;;;;;2.37;1.20;;;21.30;56.00;;;;;;5051534;28;20216;-69
2024/02/16 10:56:07;;;;;;;1.03;0.70;;;21.30;56.00;;;;;;5053017;28;20413;-70
2024/02/16 10:58:33;;;;;;;1.40;0.90;;;21.30;56.00;;;;;;5053510;28;20182;-70
2024/02/16 11:01:10;;;;;;;1.43;1.00;;;21.30;56.00;;;;;;5053150;28;20435;-69
2024/02/16 11:03:39;;;;;;;1.53;1.00;;;21.30;56.00;;;;;;5053614;28;20401;-71
2024/02/16 11:06:18;;;;;;;1.00;0.70;;;21.30;56.00;;;;;;5052950;28;20453;-69
2024/02/16 11:08:44;;;;;;;1.10;0.83;;;21.30;56.00;;;;;;5053291;28;20390;-70
2024/02/16 11:11:11;;;;;;;1.40;0.90;;;21.30;56.00;;;;;;5053168;28;20964;-69
2024/02/16 11:13:38;;;;;;;1.10;0.90;;;21.30;56.00;;;;;;5053294;28;20266;-70
2024/02/16 11:16:07;;;;;;;1.13;0.83;;;21.30;56.00;;;;;;5053166;28;20489;-70
2024/02/16 11:18:39;;;;;;;1.90;0.87;;;21.30;56.10;;;;;;5052299;28;20426;-71
2024/02/16 11:21:07;;;;;;;1.00;0.70;;;21.20;56.00;;;;;;5052266;28;20394;-69
2024/02/16 11:23:34;;;;;;;1.30;0.90;;;21.30;56.00;;;;;;5052471;28;20486;-70
2024/02/16 11:26:04;;;;;;;1.93;1.03;;;21.30;56.00;;;;;;5052242;28;20822;-69
2024/02/16 11:28:34;;;;;;;1.00;0.73;;;21.30;56.00;;;;;;5052224;28;20409;-70
2024/02/16 11:31:00;;;;;;;1.20;0.90;;;21.30;56.00;;;;;;5052347;28;20406;-70
2024/02/16 11:33:29;;;;;;;1.43;0.90;;;21.30;56.10;;;;;;5052574;28;20444;-71
2024/02/16 11:35:57;;;;;;;1.67;1.00;;;21.30;56.10;;;;;;5053038;28;20460;-71
2024/02/16 11:38:23;;;;;;;0.83;0.70;;;21.20;56.00;;;;;;5052164;28;20840;-71
2024/02/16 11:40:59;;;;;;;1.97;0.73;;;21.30;56.10;;;;;;5052847;28;20539;-71
2024/02/16 11:43:25;;;;;;;1.20;1.10;;;21.20;56.00;;;;;;5052628;28;20413;-70
2024/02/16 11:45:52;;;;;;;1.20;0.97;;;21.20;56.00;;;;;;5052342;28;20451;-69
2024/02/16 11:48:24;;;;;;;0.90;0.70;;;21.20;56.00;;;;;;5052270;28;20959;-70
2024/02/16 11:51:00;;;;;;;1.27;0.90;;;21.30;56.10;;;;;;5053102;28;20922;-70
2024/02/16 11:53:26;;;;;;;1.20;0.80;;;21.20;56.10;;;;;;5051631;28;20951;-71
2024/02/16 11:55:51;;;;;;;0.97;0.80;;;21.30;56.10;;;;;;5052317;28;20459;-70
2024/02/16 11:58:18;;;;;;;1.00;0.80;;;21.30;56.10;;;;;;5052035;28;20262;-71
2024/02/16 12:00:45;;;;;;;1.27;0.90;;;21.20;56.00;;;;;;5050774;28;20553;-67
2024/02/16 12:03:11;;;;;;;1.10;0.90;;;21.30;56.10;;;;;;5051966;28;20520;-70
2024/02/16 12:05:38;;;;;;;1.30;0.90;;;21.30;56.10;;;;;;5051368;28;20500;-69
2024/02/16 12:08:06;;;;;;;1.43;0.80;;;21.30;56.10;;;;;;5051914;28;20182;-69
2024/02/16 12:10:31;;;;;;;1.10;0.90;;;21.30;56.10;;;;;;5051729;28;20413;-71
2024/02/16 12:12:58;;;;;;;1.00;0.80;;;21.30;56.10;;;;;;5051310;28;20524;-71
2024/02/16 12:15:24;;;;;;;1.73;0.97;;;21.30;56.10;;;;;;5051561;28;20160;-72
2024/02/16 12:17:59;;;;;;;1.33;1.10;;;21.30;56.10;;;;;;5051743;28;20409;-71
2024/02/16 12:20:25;;;;;;;1.47;1.00;;;21.30;56.10;;;;;;5051339;28;20564;-69
2024/02/16 12:22:51;;;;;;;1.63;1.53;;;21.30;56.10;;;;;;5051541;28;20447;-71
2024/02/16 12:25:17;;;;;;;1.97;0.90;;;21.30;56.10;;;;;;5051872;28;20179;-70
2024/02/16 12:27:42;;;;;;;1.50;0.83;;;21.30;56.10;;;;;;5055164;28;20476;-72
2024/02/16 12:30:09;;;;;;;1.27;0.90;;;21.30;56.10;;;;;;5055532;28;20172;-71
2024/02/16 12:32:34;;;;;;;1.33;1.13;;;21.30;56.10;;;;;;5055302;28;20187;-71
2024/02/16 12:35:00;;;;;;;1.17;0.80;;;21.30;56.10;;;;;;5055239;28;21046;-71
2024/02/16 12:37:25;;;;;;;1.10;0.80;;;21.30;56.10;;;;;;5055114;28;20213;-71
2024/02/16 12:39:51;;;;;;;1.10;0.80;;;21.30;56.10;;;;;;5055277;28;20175;-72
2024/02/16 12:42:16;;;;;;;1.73;1.00;;;21.30;56.10;;;;;;5054813;28;20206;-70
2024/02/16 12:44:42;;;;;;;1.00;0.80;;;21.30;56.10;;;;;;5054862;28;20182;-70